Lillie, Louisiana
Current Conditions -  °F | °C
As of 5:53 PM on Saturday 22 Nov 2014 (Local Time) from KELD Reporting Station
Few Clouds Few Clouds  
Wind Chill: 62°   Ceiling: Unl
Heat Index: 62°   Visibility: 10mi
Dew Point: 56°   Wind: 7mph
Humidity: 80%   Direction: 100°E
Pressure: 29.96"   Gusts: NA
Location:  32.93°N, 92.66°W
Report Text: KELD 222353Z AUTO 10006KT 10SM FEW029 17/13 A2996 RMK AO2 SLP144 T01670133 10222 20167 58006
Loading
Personal Weather Stations






























Interactive Weather Map New forecast layout! Learn more

10-Day Weather Forecast

Advertisements
Track Severe Weather on mobile